TimePDT,TemperatureF,Dew PointF,Humidity,Sea Level PressureIn,VisibilityMPH,Wind Direction,Wind SpeedMPH,Gust SpeedMPH,PrecipitationIn,Events,Conditions,WindDirDegrees,DateUTC
12:53 AM,82.0,35.1,18,29.74,10.0,West,9.2,-,N/A,,Clear,280,2013-08-09 07:53:00
1:53 AM,82.9,32.0,16,29.74,10.0,NNE,3.5,-,N/A,,Clear,30,2013-08-09 08:53:00
2:53 AM,75.0,39.9,28,29.74,10.0,WNW,4.6,-,N/A,,Clear,290,2013-08-09 09:53:00
3:53 AM,75.9,36.0,23,29.73,10.0,NW,3.5,-,N/A,,Clear,320,2013-08-09 10:53:00
4:53 AM,75.0,37.9,26,29.72,10.0,West,5.8,-,N/A,,Clear,280,2013-08-09 11:53:00
5:53 AM,77.0,36.0,23,29.74,10.0,NW,3.5,-,N/A,,Clear,320,2013-08-09 12:53:00
6:53 AM,75.9,37.0,24,29.76,10.0,Calm,Calm,-,N/A,,Clear,0,2013-08-09 13:53:00
7:53 AM,84.0,37.0,19,29.78,10.0,Calm,Calm,-,N/A,,Clear,0,2013-08-09 14:53:00
8:53 AM,89.1,35.1,15,29.79,10.0,NNW,3.5,-,N/A,,Clear,330,2013-08-09 15:53:00
9:53 AM,93.9,33.1,12,29.79,10.0,West,10.4,-,N/A,,Clear,260,2013-08-09 16:53:00
10:53 AM,98.1,28.9,9,29.78,10.0,WNW,8.1,-,N/A,,Clear,290,2013-08-09 17:53:00
11:53 AM,100.0,28.0,8,29.77,10.0,Variable,3.5,-,N/A,,Clear,0,2013-08-09 18:53:00
12:53 PM,102.0,28.0,7,29.76,10.0,SW,9.2,-,N/A,,Clear,220,2013-08-09 19:53:00
1:53 PM,102.9,28.0,7,29.75,10.0,WNW,3.5,-,N/A,,Clear,290,2013-08-09 20:53:00
2:53 PM,104.0,28.0,7,29.73,10.0,South,5.8,-,N/A,,Clear,190,2013-08-09 21:53:00
3:53 PM,105.1,28.9,7,29.71,10.0,SW,9.2,-,N/A,,Clear,230,2013-08-09 22:53:00
4:53 PM,105.1,28.0,7,29.71,10.0,SW,6.9,-,N/A,,Clear,230,2013-08-09 23:53:00
5:53 PM,100.0,41.0,13,29.70,10.0,West,15.0,-,N/A,,Clear,260,2013-08-10 00:53:00
6:53 PM,95.0,43.0,17,29.70,10.0,West,16.1,-,N/A,,Clear,260,2013-08-10 01:53:00
7:53 PM,90.0,39.9,17,29.71,10.0,West,17.3,-,N/A,,Clear,260,2013-08-10 02:53:00
8:53 PM,87.1,37.9,18,29.73,10.0,West,15.0,-,N/A,,Clear,270,2013-08-10 03:53:00
9:53 PM,86.0,33.1,15,29.75,10.0,West,16.1,-,N/A,,Clear,280,2013-08-10 04:53:00
10:53 PM,84.9,30.9,14,29.75,10.0,West,13.8,21.9,N/A,,Clear,270,2013-08-10 05:53:00
11:53 PM,82.9,27.0,13,29.77,10.0,WNW,9.2,-,N/A,,Clear,300,2013-08-10 06:53:00